createdAt,value
2019-05-21T00:03:21.025Z,13.9
2019-05-21T00:08:26.486Z,13.9
2019-05-21T00:13:31.715Z,13.8
2019-05-21T00:23:39.520Z,13.7
2019-05-21T00:28:44.523Z,13.7
2019-05-21T00:33:49.727Z,13.7
2019-05-21T00:43:58.778Z,13.6
2019-05-21T00:49:03.964Z,13.6
2019-05-21T00:54:09.025Z,13.7
2019-05-21T00:59:14.070Z,13.7
2019-05-21T01:04:19.073Z,13.8
2019-05-21T01:09:24.438Z,13.7
2019-05-21T01:14:29.768Z,13.6
2019-05-21T01:19:35.077Z,13.6
2019-05-21T02:16:39.641Z,13.2
2019-05-21T02:21:44.667Z,13.1
2019-05-21T02:26:49.741Z,13
2019-05-21T02:31:54.831Z,12.9
2019-05-21T02:37:00.004Z,12.8
2019-05-21T02:42:03.612Z,12.8
2019-05-21T02:47:08.635Z,12.7
2019-05-21T02:52:13.863Z,12.7
2019-05-21T02:57:18.854Z,12.7
2019-05-21T03:02:24.243Z,12.6
2019-05-21T03:07:29.419Z,12.6
2019-05-21T03:12:34.629Z,12.6
2019-05-21T03:17:39.698Z,12.6
2019-05-21T03:22:45.011Z,12.7
2019-05-21T03:27:50.085Z,12.7
2019-05-21T03:32:55.051Z,12.7
2019-05-21T03:37:58.779Z,12.8
2019-05-21T03:43:04.262Z,12.9
2019-05-21T03:48:09.913Z,13.1
2019-05-21T03:53:14.977Z,13
2019-05-21T03:58:20.005Z,13.2
2019-05-21T04:03:23.791Z,13.4
2019-05-21T04:08:28.749Z,13.6
2019-05-21T04:13:33.842Z,13.7
2019-05-21T04:18:38.964Z,13.9
2019-05-21T04:23:44.031Z,14.2
2019-05-21T04:28:49.374Z,14.4
2019-05-21T04:33:54.649Z,14.5
2019-05-21T04:38:59.780Z,14.5
2019-05-21T04:44:05.040Z,14.7
2019-05-21T04:49:10.059Z,14.9
2019-05-21T04:54:13.714Z,15
2019-05-21T04:59:18.788Z,15.3
2019-05-21T05:04:23.948Z,15.7
2019-05-21T05:09:28.859Z,16
2019-05-21T05:14:33.981Z,16
2019-05-21T05:19:38.972Z,16.7
2019-05-21T05:24:44.099Z,16.3
2019-05-21T05:29:49.114Z,16.6
2019-05-21T05:34:54.760Z,16.5
2019-05-21T05:39:59.828Z,16.9
2019-05-21T05:45:04.895Z,17.2
2019-05-21T05:50:10.108Z,17.2
2019-05-21T05:55:15.125Z,17.5
2019-05-21T06:00:20.183Z,17.7
2019-05-21T06:05:25.398Z,17.9
2019-05-21T06:10:30.767Z,18.2
2019-05-21T06:15:36.145Z,18.7
2019-05-21T06:20:41.524Z,19.6
2019-05-21T06:25:46.513Z,19.6
2019-05-21T06:30:51.603Z,19.7
2019-05-21T06:35:56.742Z,19.7
2019-05-21T06:41:01.784Z,19.5
2019-05-21T06:46:05.667Z,19.3
2019-05-21T06:51:10.781Z,18.9
2019-05-21T06:56:15.960Z,19.2
2019-05-21T07:01:30.986Z,19.4
2019-05-21T07:06:25.815Z,19.4
2019-05-21T07:11:31.156Z,19.6
2019-05-21T07:16:36.346Z,19.6
2019-05-21T07:21:41.569Z,19.4
2019-05-21T07:26:46.925Z,19.1
2019-05-21T07:31:52.273Z,19.6
2019-05-21T07:36:57.618Z,19.7
2019-05-21T07:42:02.514Z,19.4
2019-05-21T07:47:07.728Z,19.1
2019-05-21T07:52:12.791Z,19.3
2019-05-21T07:57:17.780Z,19.5
2019-05-21T08:02:22.783Z,19.5
2019-05-21T08:07:27.956Z,19.6
2019-05-21T08:12:41.328Z,20.4
2019-05-21T08:17:36.475Z,20.4
2019-05-21T08:22:39.836Z,21
2019-05-21T08:27:45.406Z,21.2
2019-05-21T08:32:50.465Z,21.2
2019-05-21T08:37:55.664Z,21.3
2019-05-21T08:43:00.720Z,21.2
2019-05-21T08:48:06.341Z,21.5
2019-05-21T08:53:12.056Z,21.8
2019-05-21T08:58:17.187Z,21.8
2019-05-21T09:03:22.362Z,21
2019-05-21T09:08:27.528Z,21
2019-05-21T09:13:32.442Z,21.7
2019-05-21T09:18:37.598Z,21.8
2019-05-21T09:23:42.636Z,22
2019-05-21T09:28:42.665Z,21.9
2019-05-21T09:33:47.733Z,22
2019-05-21T09:38:53.001Z,22.4
2019-05-21T09:43:56.552Z,23.7
2019-05-21T09:49:01.912Z,23.4
2019-05-21T09:54:07.042Z,23
2019-05-21T09:59:10.700Z,23.2
2019-05-21T10:04:19.282Z,23.7
2019-05-21T10:09:24.271Z,23
2019-05-21T10:14:29.398Z,23.2
2019-05-21T10:19:38.513Z,23.7
2019-05-21T10:24:43.552Z,23.2
2019-05-21T10:29:48.651Z,22.8
2019-05-21T10:34:53.737Z,23
2019-05-21T10:39:58.734Z,23.5
2019-05-21T10:45:03.872Z,23.8
2019-05-21T10:50:09.151Z,23.2
2019-05-21T10:55:18.830Z,24.9
2019-05-21T11:00:25.274Z,24.4
2019-05-21T11:05:30.828Z,24.4
2019-05-21T11:10:35.923Z,24.4
2019-05-21T11:15:41.126Z,23.4
2019-05-21T11:20:44.836Z,22.7
2019-05-21T11:25:49.689Z,22.3
2019-05-21T11:30:54.746Z,23
2019-05-21T11:36:00.459Z,22.9
2019-05-21T11:41:05.603Z,22.9
2019-05-21T11:46:05.640Z,23.5
2019-05-21T11:51:14.712Z,23.2
2019-05-21T11:56:20.401Z,24
2019-05-21T12:01:25.554Z,24
2019-05-21T12:06:31.080Z,24.1
2019-05-21T12:11:34.847Z,24.1
2019-05-21T12:16:39.927Z,23.3
2019-05-21T12:21:43.856Z,22.5
2019-05-21T12:31:52.647Z,22.2
2019-05-21T12:36:57.591Z,21.5
2019-05-21T12:42:02.622Z,21.2
2019-05-21T12:47:11.521Z,20.7
2019-05-21T12:52:11.726Z,20.7
2019-05-21T12:57:16.557Z,20.8
2019-05-21T13:02:22.551Z,22
2019-05-21T13:07:28.166Z,22
2019-05-21T13:12:32.299Z,21.9
2019-05-21T13:17:37.134Z,22.2
2019-05-21T13:22:42.397Z,21.6
2019-05-21T13:27:47.586Z,19.2
2019-05-21T13:32:52.947Z,17.5
2019-05-21T13:37:58.203Z,16.8
2019-05-21T13:43:01.817Z,17.1
2019-05-21T13:48:07.056Z,18.1
2019-05-21T13:53:12.566Z,19.1
2019-05-21T13:58:17.662Z,19.9
2019-05-21T14:03:23.013Z,20.2
2019-05-21T14:08:28.205Z,20.2
2019-05-21T14:13:33.076Z,20.3
2019-05-21T14:18:37.991Z,20.5
2019-05-21T14:23:43.076Z,20.9
2019-05-21T14:28:47.968Z,21.2
2019-05-21T14:33:53.427Z,21.3
2019-05-21T14:44:06.942Z,21.3
2019-05-21T14:49:11.896Z,21.2
2019-05-21T14:54:28.411Z,21
2019-05-21T14:59:23.954Z,21.2
2019-05-21T15:04:29.933Z,20.4
2019-05-21T15:09:35.856Z,20.4
2019-05-21T15:14:40.759Z,20.1
2019-05-21T15:19:45.784Z,19.1
2019-05-21T15:24:50.729Z,17.6
2019-05-21T15:29:59.124Z,17.6
2019-05-21T15:35:04.207Z,17.6
2019-05-21T15:40:07.733Z,17.7
2019-05-21T15:45:12.577Z,17.9
2019-05-21T15:50:17.681Z,18.1
2019-05-21T15:55:22.772Z,18.2
2019-05-21T16:00:27.902Z,18.4
2019-05-21T16:05:32.988Z,18.4
2019-05-21T16:10:37.966Z,18.5
2019-05-21T16:15:42.807Z,18.6
2019-05-21T16:20:44.564Z,18.7
2019-05-21T16:30:51.577Z,18.7
2019-05-21T16:35:56.413Z,18.7
2019-05-21T16:40:59.726Z,18.7
2019-05-21T16:46:05.255Z,19
2019-05-21T16:51:10.354Z,18.9
2019-05-21T16:56:15.654Z,19.1
2019-05-21T17:01:21.090Z,19.2
2019-05-21T17:06:24.496Z,19.1
2019-05-21T17:11:30.868Z,18.9
2019-05-21T17:16:35.598Z,18.7
2019-05-21T17:21:40.512Z,18.6
2019-05-21T17:26:47.195Z,18.5
2019-05-21T17:31:50.981Z,18.4
2019-05-21T17:36:55.995Z,18.3
2019-05-21T17:42:17.235Z,18.1
2019-05-21T17:47:02.148Z,18
2019-05-21T17:52:08.062Z,17.9
2019-05-21T17:57:12.828Z,17.8
2019-05-21T18:02:20.711Z,17.4
2019-05-21T18:07:26.122Z,17.4
2019-05-21T18:12:34.197Z,17.1
2019-05-21T18:17:37.611Z,17.1
2019-05-21T18:22:43.022Z,17
2019-05-21T18:27:47.911Z,17
2019-05-21T18:37:56.640Z,16.6
2019-05-21T18:43:01.681Z,16.4
2019-05-21T18:48:07.538Z,16.1
2019-05-21T18:53:16.425Z,16
2019-05-21T18:58:21.497Z,16
2019-05-21T19:03:27.574Z,15.8
2019-05-21T19:08:32.869Z,15.7
2019-05-21T19:13:38.990Z,15.7
2019-05-21T19:18:44.284Z,15.6
2019-05-21T19:23:49.171Z,15.6
2019-05-21T19:28:54.268Z,15.5
2019-05-21T19:33:59.602Z,15.4
2019-05-21T19:39:04.682Z,15.3
2019-05-21T19:44:09.618Z,15.3
2019-05-21T19:49:15.107Z,15.1
2019-05-21T19:54:21.514Z,15.1
2019-05-21T19:59:25.209Z,15
2019-05-21T20:04:36.146Z,14.9
2019-05-21T20:09:31.171Z,14.9
2019-05-21T20:14:36.456Z,14.8
2019-05-21T20:19:41.430Z,14.7
2019-05-21T20:24:46.798Z,14.7
2019-05-21T20:29:51.599Z,14.7
2019-05-21T20:34:56.932Z,14.6
2019-05-21T20:40:01.825Z,14.6
2019-05-21T20:45:05.159Z,14.6
2019-05-21T20:50:13.842Z,14.5
2019-05-21T20:55:19.250Z,14.5
2019-05-21T21:00:24.186Z,14.5
2019-05-21T21:05:29.070Z,14.5
2019-05-21T21:10:35.156Z,14.4
2019-05-21T21:15:40.456Z,14.5
2019-05-21T21:20:46.112Z,14.5
2019-05-21T21:25:51.049Z,14.4
2019-05-21T21:30:56.330Z,14.5
2019-05-21T21:36:01.346Z,14.5
2019-05-21T21:41:06.292Z,14.4
2019-05-21T21:46:14.558Z,14.3
2019-05-21T21:51:19.372Z,14.3
2019-05-21T21:56:24.417Z,14.3
2019-05-21T22:01:27.921Z,14.3
2019-05-21T22:06:33.113Z,14.3
2019-05-21T22:11:37.917Z,14.3
2019-05-21T22:16:42.978Z,14.3
2019-05-21T22:21:46.432Z,14.3
2019-05-21T22:26:51.651Z,14.3
2019-05-21T22:31:56.829Z,14.3
2019-05-21T22:37:01.776Z,14.3
2019-05-21T22:42:06.964Z,14.3
2019-05-21T22:47:11.784Z,14.3
2019-05-21T22:52:16.621Z,14.3
2019-05-21T22:57:21.956Z,14.3
2019-05-21T23:02:30.420Z,14.3
2019-05-21T23:07:36.522Z,14.2
2019-05-21T23:12:41.404Z,14.3
2019-05-21T23:17:46.388Z,14.2
2019-05-21T23:22:51.218Z,14.2
2019-05-21T23:27:56.430Z,14.2
2019-05-21T23:33:01.492Z,14.2
2019-05-21T23:38:06.663Z,14.2
2019-05-21T23:43:11.555Z,14.1
2019-05-21T23:48:16.693Z,14.1
2019-05-21T23:53:21.866Z,14.1
2019-05-21T23:58:26.924Z,14.1
